Latest Weather Observations for Marble Bar

IDW60801

Issued at 9:32 am WST Wednesday 22 April 2015 (issued every 30 minutes, with the page automatically refreshed every 10 minutes)

About weather observations | Map of weather stations | Latest weather observations for WA | Other Formats
Station Details ID: 004106 Name: MARBLE BAR Lat: -21.18 Lon: 119.75 Height: 182.3 m
Data from the previous 72 hours. | See also: Recent months at Marble Bar
Date/Time
WST
Temp
°C
App
Temp
°C
Dew
Point
Rel
Hum
%
Delta-T
°C
Wind Press
QNH
hPa
Press
MSL
hPa
Rain
since 9 am
mm
Dir
 
Spd
km/h
Gust
km/h
Spd
kts
Gust
kts
22/09:30am 16.0 13.7 11.8 76 2.3 SSE 15 22 8 12 1014.6 1013.4 0.0
22/09:00am 15.8 12.7 11.6 76 2.3 SSE 19 28 10 15 1015.0 1013.8 9.8
22/08:30am 15.8 13.0 11.2 74 2.5 SSE 17 26 9 14 1014.9 1013.7 9.8
22/08:00am 15.5 12.7 11.3 76 2.3 SSE 17 24 9 13 1014.7 1013.5 9.8
22/07:30am 15.4 13.3 11.0 75 2.4 SSE 13 20 7 11 1014.7 1013.5 9.8
22/07:00am 15.0 12.1 11.0 77 2.1 SSE 17 22 9 12 1014.1 1012.9 9.8
22/06:30am 14.5 12.9 11.5 82 1.6 SE 11 19 6 10 1014.5 1013.3 9.8
22/06:00am 14.4 13.2 11.6 83 1.5 SE 9 17 5 9 1014.7 1013.5 9.8
22/05:30am 14.6 13.0 11.7 83 1.6 SSE 11 15 6 8 1014.1 1012.9 9.8
22/05:00am 14.4 11.6 11.4 82 1.6 SSE 17 22 9 12 1013.7 1012.5 9.8
22/04:30am 14.0 11.7 11.9 87 1.1 SSE 15 22 8 12 1013.9 1012.7 9.8
22/04:00am 14.1 13.0 12.1 88 1.1 S 9 13 5 7 1014.1 1012.9 9.6
22/03:30am 14.6 13.8 11.7 83 1.6 SSE 7 13 4 7 1014.1 1012.9 9.0
22/03:00am 14.4 12.9 11.9 85 1.4 S 11 15 6 8 1014.1 1012.9 9.0
22/02:30am 14.4 12.8 11.7 84 1.5 SSE 11 15 6 8 1014.0 1012.8 9.0
22/02:00am 14.2 12.3 11.7 85 1.4 SE 13 20 7 11 1014.1 1012.9 9.0
22/01:30am 13.8 11.6 12.2 90 0.9 SE 15 22 8 12 1014.1 1012.9 9.0
22/01:00am 13.5 11.0 12.4 93 0.6 SE 17 22 9 12 1014.5 1013.3 9.0
22/12:30am 14.4 12.5 11.9 85 1.4 SE 13 19 7 10 1014.8 1013.6 8.0
22/12:00am 14.4 11.3 12.1 86 1.3 ESE 20 30 11 16 1014.6 1013.4 8.0
 
Date/Time
WST
Temp
°C
App
Temp
°C
Dew
Point
Rel
Hum
%
Delta-T
°C
Wind Press
QNH
hPa
Press
MSL
hPa
Rain
since 9 am
mm
Dir
 
Spd
km/h
Gust
km/h
Spd
kts
Gust
kts
21/11:30pm 14.4 12.3 12.4 88 1.1 ESE 15 20 8 11 1014.9 1013.7 8.0
21/11:00pm 14.4 11.5 12.4 88 1.1 ESE 19 30 10 16 1015.2 1014.0 8.0
21/10:30pm 14.1 11.3 12.5 90 0.9 ESE 19 30 10 16 1015.2 1014.0 8.0
21/10:00pm 14.1 11.7 12.7 91 0.8 ESE 17 28 9 15 1015.7 1014.5 8.0
21/09:30pm 14.4 12.0 12.6 89 1.0 ESE 17 28 9 15 1015.8 1014.6 8.0
21/09:00pm 14.6 11.8 12.6 88 1.1 ESE 19 28 10 15 1015.6 1014.4 8.0
21/08:30pm 14.5 11.5 12.4 87 1.2 ESE 20 35 11 19 1015.7 1014.5 8.0
21/08:00pm 14.5 11.1 12.4 87 1.2 ESE 22 32 12 17 1015.3 1014.1 8.0
21/07:30pm 14.7 11.9 12.6 87 1.2 ESE 19 28 10 15 1015.1 1013.9 8.0
21/07:00pm 14.7 11.8 12.9 89 1.0 ESE 20 33 11 18 1014.9 1013.7 8.0
21/06:30pm 14.6 11.7 12.8 89 1.0 ESE 20 30 11 16 1014.8 1013.6 8.0
21/06:00pm 14.6 11.4 13.1 91 0.8 ESE 22 33 12 18 1014.2 1013.0 8.0
21/05:30pm 14.5 11.8 13.4 93 0.6 ESE 20 32 11 17 1014.2 1013.0 7.8
21/05:00pm 14.3 9.1 13.5 95 0.4 ESE 33 44 18 24 1013.5 1012.3 7.8
21/04:30pm 14.5 10.8 13.9 96 0.3 ESE 26 37 14 20 1013.6 1012.4 6.2
21/04:00pm 15.0 11.3 13.9 93 0.6 ESE 26 35 14 19 1013.7 1012.5 4.4
21/03:30pm 15.1 13.2 14.1 94 0.6 SE 17 24 9 13 1013.9 1012.7 3.8
21/03:00pm 15.4 12.8 13.9 91 0.9 ESE 20 32 11 17 1013.9 1012.7 2.8
21/02:30pm 15.8 11.6 13.6 87 1.2 ESE 28 39 15 21 1013.8 1012.6 2.6
21/02:00pm 15.8 12.0 13.6 87 1.2 ESE 26 37 14 20 1014.1 1012.9 2.4
21/01:30pm 15.9 12.9 13.7 87 1.2 ESE 22 37 12 20 1014.5 1013.3 2.4
21/01:00pm 16.0 13.7 14.0 88 1.1 ESE 19 28 10 15 1015.1 1013.9 2.2
21/12:30pm 16.2 14.1 14.6 90 0.9 SE 19 28 10 15 1015.2 1014.0 2.0
21/12:00pm 15.9 12.9 13.7 87 1.2 ESE 22 32 12 17 1015.9 1014.7 1.6
21/11:30am 16.0 13.4 13.8 87 1.3 SE 20 32 11 17 1016.2 1015.0 1.4
21/11:00am 16.0 13.5 14.0 88 1.1 SE 20 30 11 16 1016.4 1015.2 1.2
21/10:30am 15.9 12.7 14.3 90 0.9 ESE 24 32 13 17 1016.6 1015.4 1.2
21/10:00am 15.6 12.3 14.1 91 0.9 ESE 24 35 13 19 1017.1 1015.9 1.0
21/09:30am 15.7 12.5 14.2 91 0.9 SE 24 32 13 17 1017.1 1015.9 0.4
21/09:00am 16.2 13.7 14.0 87 1.3 SE 20 30 11 16 1017.5 1016.3 67.0
21/08:30am 15.8 13.9 14.2 90 0.9 SE 17 24 9 13 1017.2 1016.0 67.0
21/08:00am 15.8 13.5 14.0 89 1.0 SE 19 26 10 14 1017.0 1015.8 66.8
21/07:30am 15.6 13.7 14.3 92 0.7 SE 17 30 9 16 1016.9 1015.7 66.8
21/07:00am 15.3 14.0 14.7 96 0.3 SE 15 22 8 12 1016.8 1015.6 66.6
21/06:30am 15.2 12.9 14.6 96 0.3 SE 20 30 11 16 1016.6 1015.4 66.6
21/06:00am 15.4 13.6 14.4 94 0.6 ESE 17 24 9 13 1017.0 1015.8 65.6
21/05:30am 15.4 13.0 14.4 94 0.6 ESE 20 32 11 17 1016.6 1015.4 65.2
21/05:00am 15.3 13.2 14.7 96 0.3 SE 19 28 10 15 1016.4 1015.2 65.0
21/04:30am 15.1 13.0 14.6 97 0.3 ESE 19 28 10 15 1016.6 1015.4 64.8
21/04:00am 15.1 13.4 14.6 97 0.3 ESE 17 30 9 16 1016.8 1015.6 64.2
21/03:30am 15.2 13.5 14.7 97 0.3 ESE 17 24 9 13 1016.9 1015.7 63.6
21/03:00am 15.2 13.6 14.9 98 0.2 ESE 17 30 9 16 1017.0 1015.8 62.8
21/02:30am 15.1 13.3 14.5 96 0.3 ESE 17 24 9 13 1017.0 1015.8 61.6
21/02:00am 15.2 12.8 14.4 95 0.5 ESE 20 33 11 18 1017.0 1015.8 59.2
21/01:30am 15.3 13.1 14.5 95 0.5 ESE 19 30 10 16 1017.4 1016.2 59.2
21/01:00am 15.4 13.3 14.6 95 0.5 ESE 19 33 10 18 1017.6 1016.4 59.0
21/12:30am 15.5 13.3 14.9 96 0.3 ESE 20 32 11 17 1017.6 1016.4 58.6
21/12:00am 15.5 13.4 15.2 98 0.2 ESE 20 28 11 15 1017.9 1016.6 58.4
 
Date/Time
WST
Temp
°C
App
Temp
°C
Dew
Point
Rel
Hum
%
Delta-T
°C
Wind Press
QNH
hPa
Press
MSL
hPa
Rain
since 9 am
mm
Dir
 
Spd
km/h
Gust
km/h
Spd
kts
Gust
kts
20/11:30pm 15.6 13.2 15.3 98 0.2 ESE 22 39 12 21 1017.8 1016.5 57.6
20/11:00pm 15.5 13.6 15.3 99 0.1 ESE 19 32 10 17 1018.3 1017.1 56.6
20/10:30pm 15.5 14.4 15.3 99 0.1 ESE 15 24 8 13 1018.8 1017.6 55.0
20/10:00pm 15.4 12.5 15.2 99 0.1 ESE 24 37 13 20 1018.6 1017.4 52.4
20/09:30pm 15.3 12.8 15.1 99 0.1 ESE 22 35 12 19 1018.8 1017.6 49.0
20/09:00pm 15.2 12.6 15.0 99 0.1 E 22 33 12 18 1019.0 1017.8 46.2
20/08:30pm 15.3 10.8 15.0 98 0.2 ESE 32 46 17 25 1019.1 1017.9 41.0
20/08:00pm 15.7 13.0 15.5 99 0.1 E 24 37 13 20 1018.9 1017.7 32.8
20/07:30pm 15.8 12.7 15.5 98 0.2 ESE 26 37 14 20 1018.3 1017.1 28.4
20/07:19pm 15.9 12.4 15.6 98 0.2 ESE 28 48 15 26 1018.1 1016.9 26.4
20/07:00pm 16.1 12.7 15.8 98 0.2 E 28 44 15 24 1017.5 1016.3 23.2
20/06:30pm 16.6 14.9 16.3 98 0.2 ESE 20 28 11 15 1017.3 1016.1 18.6
20/06:00pm 16.6 15.9 16.3 98 0.2 ESE 15 24 8 13 1017.3 1016.1 13.8
20/05:30pm 16.8 15.6 16.2 96 0.4 ESE 17 26 9 14 1017.0 1015.8 10.6
20/05:00pm 16.9 15.3 16.1 95 0.5 ESE 19 26 10 14 1017.0 1015.8 9.0
20/04:30pm 17.0 16.7 16.4 96 0.4 ESE 13 20 7 11 1016.9 1015.7 7.8
20/04:00pm 17.0 14.8 16.0 94 0.6 ESE 22 37 12 20 1016.5 1015.3 7.2
20/03:30pm 17.2 15.7 16.2 94 0.6 ESE 19 28 10 15 1016.5 1015.3 6.2
20/03:00pm 17.4 16.6 16.1 92 0.8 ESE 15 22 8 12 1016.5 1015.3 5.0
20/02:30pm 18.0 16.5 15.4 85 1.5 ESE 17 22 9 12 1016.5 1015.3 3.4
20/02:00pm 18.9 16.8 14.8 77 2.4 ESE 19 30 10 16 1016.5 1015.3 2.6
20/01:30pm 18.8 17.8 15.7 82 1.8 ESE 15 22 8 12 1016.8 1015.6 2.6
20/01:00pm 19.3 19.7 16.3 83 1.8 ESE 9 19 5 10 1017.2 1016.0 2.0
20/12:30pm 19.0 18.0 15.5 80 2.1 SE 15 20 8 11 1017.4 1016.2 1.8
20/12:00pm 18.7 16.7 15.0 79 2.2 SE 19 24 10 13 1017.6 1016.4 1.8
20/11:30am 18.4 15.4 14.9 80 2.1 ESE 24 32 13 17 1018.1 1016.9 1.8
20/11:00am 18.1 17.8 15.4 84 1.6 ESE 11 17 6 9 1018.6 1017.4 1.8
20/10:30am 17.9 15.6 14.2 79 2.1 ESE 19 28 10 15 1018.9 1017.7 0.6
20/10:00am 19.3 16.5 13.3 68 3.4 ESE 20 30 11 16 1018.9 1017.7 0.2
20/09:30am 19.2 16.2 13.8 71 3.1 ESE 22 30 12 16 1018.8 1017.6 0.0
20/09:00am 19.5 17.5 13.9 70 3.2 ESE 17 24 9 13 1018.9 1017.7 10.6
20/08:30am 18.7 17.5 15.0 79 2.2 SE 15 20 8 11 1019.1 1017.9 10.6
20/08:00am 18.1 17.7 15.2 83 1.7 SE 11 17 6 9 1019.2 1018.0 10.6
20/07:30am 18.0 18.1 15.4 85 1.5 SE 9 15 5 8 1019.0 1017.8 10.6
20/07:00am 17.9 18.8 16.1 89 1.1 SE 6 7 3 4 1019.1 1017.9 10.4
20/06:30am 18.0 18.1 15.6 86 1.4 SE 9 15 5 8 1018.7 1017.5 10.2
20/06:00am 18.4 18.9 15.6 84 1.7 ESE 7 11 4 6 1018.5 1017.3 10.0
20/05:30am 19.0 18.9 14.9 77 2.4 ESE 9 13 5 7 1018.0 1016.7 10.0
20/05:00am 19.1 19.7 15.2 78 2.3 ENE 6 9 3 5 1018.0 1016.7 10.0
20/04:30am 19.5 19.8 15.0 75 2.7 E 7 11 4 6 1018.1 1016.9 10.0
20/04:00am 19.5 19.7 14.7 74 2.8 ESE 7 13 4 7 1017.9 1016.6 10.0
20/03:30am 19.6 19.4 14.8 74 2.8 ESE 9 13 5 7 1017.9 1016.6 10.0
20/03:00am 19.7 19.8 15.6 77 2.4 ESE 9 17 5 9 1017.2 1016.0 10.0
20/02:30am 19.4 21.6 16.6 84 1.7 CALM 0 0 0 0 1017.4 1016.2 10.0
20/02:00am 19.5 20.9 16.5 83 1.8 E 4 6 2 3 1017.4 1016.2 10.0
20/01:30am 19.3 20.4 16.7 85 1.6 E 6 7 3 4 1017.4 1016.2 10.0
20/01:00am 19.3 21.0 17.1 87 1.3 ESE 4 6 2 3 1018.0 1016.7 9.8
20/12:30am 19.1 20.2 17.1 88 1.2 SE 7 11 4 6 1017.9 1016.6 9.8
20/12:00am 19.3 19.9 16.9 86 1.5 ESE 9 13 5 7 1018.4 1017.2 9.8
 
Date/Time
WST
Temp
°C
App
Temp
°C
Dew
Point
Rel
Hum
%
Delta-T
°C
Wind Press
QNH
hPa
Press
MSL
hPa
Rain
since 9 am
mm
Dir
 
Spd
km/h
Gust
km/h
Spd
kts
Gust
kts
19/11:30pm 19.2 19.9 17.0 87 1.3 SE 9 17 5 9 1018.6 1017.4 9.8
19/11:00pm 19.1 18.7 17.1 88 1.2 SE 15 20 8 11 1018.8 1017.6 9.8
19/10:30pm 19.0 19.4 18.2 95 0.5 ESE 13 20 7 11 1019.4 1018.2 9.2
19/10:00pm 19.3 20.8 17.6 90 1.0 NE 6 9 3 5 1020.3 1019.1 8.8
19/09:30pm 19.2 20.0 17.3 89 1.2 ESE 9 13 5 7 1019.8 1018.6 8.6
19/09:00pm 19.2 19.2 17.3 89 1.2 SE 13 17 7 9 1019.7 1018.5 8.4
19/08:30pm 19.1 19.1 17.2 89 1.2 SE 13 19 7 10 1019.6 1018.4 8.4
19/08:00pm 18.9 17.7 17.0 89 1.2 SE 19 28 10 15 1019.4 1018.2 8.2
19/07:30pm 18.6 18.3 17.3 92 0.8 SE 15 20 8 11 1019.3 1018.1 8.0
19/07:00pm 18.7 17.8 16.9 89 1.1 SE 17 24 9 13 1019.0 1017.8 6.6
19/06:30pm 18.5 17.5 16.7 89 1.1 SE 17 26 9 14 1019.1 1017.9 6.4
19/06:00pm 18.8 18.9 17.5 92 0.8 SE 13 19 7 10 1019.0 1017.8 6.2
19/05:30pm 19.1 18.9 17.6 91 0.9 SE 15 20 8 11 1019.0 1017.8 5.6
19/05:00pm 19.3 19.0 17.4 89 1.2 SE 15 20 8 11 1018.8 1017.6 4.8
19/04:30pm 19.7 20.3 17.8 89 1.2 ESE 11 15 6 8 1018.6 1017.4 4.0
19/04:00pm 20.6 22.3 18.5 88 1.3 ESE 7 11 4 6 1018.4 1017.2 2.8
19/03:30pm 20.8 21.7 18.4 86 1.5 ESE 11 15 6 8 1018.2 1017.0 2.0
19/03:00pm 21.1 21.7 17.7 81 2.1 ESE 11 15 6 8 1018.2 1017.0 1.4
19/02:30pm 21.4 21.2 17.6 79 2.4 ESE 15 20 8 11 1017.9 1016.6 0.8
19/02:00pm 22.8 21.2 16.4 67 3.9 ESE 20 30 11 16 1017.8 1016.5 0.4
19/01:30pm 23.4 21.8 16.4 64 4.3 SE 20 30 11 16 1017.6 1016.4 0.2
19/01:00pm 23.8 21.7 15.3 59 5.1 SE 20 28 11 15 1017.9 1016.6 0.2
19/12:30pm 23.8 21.2 14.8 57 5.4 ESE 22 30 12 16 1018.2 1017.0 0.2
19/12:00pm 23.2 22.5 15.5 62 4.6 ESE 13 19 7 10 1018.7 1017.5 0.2
19/11:30am 23.0 22.6 15.1 61 4.7 ESE 11 20 6 11 1019.3 1018.1 0.2
19/11:00am 23.0 21.6 14.6 59 5.0 ESE 15 28 8 15 1019.8 1018.6 0.2
19/10:30am 25.1 21.7 11.3 42 7.8 ESE 20 30 11 16 1019.9 1018.7 0.2
19/10:00am 24.8 22.6 10.7 41 7.9 SE 13 24 7 13 1020.0 1018.8 0.0

Other Formats:

Comma delimited format used in spreadsheet applications
http://www.bom.gov.au/fwo/IDW60801/IDW60801.95317.axf

JavaScript Object Notation format (JSON) in row-major order
http://www.bom.gov.au/fwo/IDW60801/IDW60801.95317.json